sensor_id;sensor_type;location;lat;lon;timestamp;pressure;altitude;pressure_sealevel;temperature;humidity
52719;BME280;38616;42.140;24.760;2022-07-04T00:00:11;99785.59;;;24.79;38.63
52719;BME280;38616;42.140;24.760;2022-07-04T00:02:41;99773.13;;;24.97;38.30
52719;BME280;38616;42.140;24.760;2022-07-04T00:05:08;99779.56;;;25.01;38.38
52719;BME280;38616;42.140;24.760;2022-07-04T00:07:47;99785.50;;;24.76;38.52
52719;BME280;38616;42.140;24.760;2022-07-04T00:10:15;99786.16;;;24.92;38.45
52719;BME280;38616;42.140;24.760;2022-07-04T00:12:41;99766.69;;;24.89;38.06
52719;BME280;38616;42.140;24.760;2022-07-04T00:15:07;99776.22;;;24.91;38.26
52719;BME280;38616;42.140;24.760;2022-07-04T00:17:33;99775.97;;;25.00;37.70
52719;BME280;38616;42.140;24.760;2022-07-04T00:19:59;99767.59;;;24.97;37.87
52719;BME280;38616;42.140;24.760;2022-07-04T00:22:25;99764.28;;;25.18;37.49
52719;BME280;38616;42.140;24.760;2022-07-04T00:24:51;99766.19;;;25.10;37.62
52719;BME280;38616;42.140;24.760;2022-07-04T00:27:16;99762.34;;;24.91;37.74
52719;BME280;38616;42.140;24.760;2022-07-04T00:29:41;99753.91;;;25.11;37.53
52719;BME280;38616;42.140;24.760;2022-07-04T00:32:07;99752.81;;;25.19;37.11
52719;BME280;38616;42.140;24.760;2022-07-04T00:34:33;99750.56;;;25.29;36.47
52719;BME280;38616;42.140;24.760;2022-07-04T00:36:59;99745.00;;;25.29;36.45
52719;BME280;38616;42.140;24.760;2022-07-04T00:39:24;99759.09;;;25.13;37.04
52719;BME280;38616;42.140;24.760;2022-07-04T00:41:50;99757.44;;;25.08;36.61
52719;BME280;38616;42.140;24.760;2022-07-04T00:44:15;99742.69;;;25.04;37.16
52719;BME280;38616;42.140;24.760;2022-07-04T00:46:42;99750.03;;;25.19;36.81
52719;BME280;38616;42.140;24.760;2022-07-04T00:49:09;99749.63;;;25.17;36.83
52719;BME280;38616;42.140;24.760;2022-07-04T00:51:37;99747.59;;;24.87;37.31
52719;BME280;38616;42.140;24.760;2022-07-04T00:54:04;99749.41;;;24.76;37.73
52719;BME280;38616;42.140;24.760;2022-07-04T00:56:30;99748.22;;;24.77;37.74
52719;BME280;38616;42.140;24.760;2022-07-04T00:58:55;99740.66;;;24.74;37.72
52719;BME280;38616;42.140;24.760;2022-07-04T01:01:21;99742.75;;;24.81;37.84
52719;BME280;38616;42.140;24.760;2022-07-04T01:03:48;99738.72;;;24.78;37.60
52719;BME280;38616;42.140;24.760;2022-07-04T01:06:15;99743.84;;;24.76;37.96
52719;BME280;38616;42.140;24.760;2022-07-04T01:08:42;99735.94;;;24.78;37.90
52719;BME280;38616;42.140;24.760;2022-07-04T01:11:08;99732.69;;;24.72;37.88
52719;BME280;38616;42.140;24.760;2022-07-04T01:13:34;99727.72;;;24.85;37.57
52719;BME280;38616;42.140;24.760;2022-07-04T01:16:00;99732.84;;;24.83;37.86
52719;BME280;38616;42.140;24.760;2022-07-04T01:18:26;99727.81;;;24.92;37.83
52719;BME280;38616;42.140;24.760;2022-07-04T01:20:51;99724.41;;;24.76;38.15
52719;BME280;38616;42.140;24.760;2022-07-04T01:23:17;99735.63;;;24.83;37.58
52719;BME280;38616;42.140;24.760;2022-07-04T01:25:42;99713.63;;;24.71;38.05
52719;BME280;38616;42.140;24.760;2022-07-04T01:28:08;99718.94;;;24.56;38.72
52719;BME280;38616;42.140;24.760;2022-07-04T01:30:35;99710.91;;;24.74;38.16
52719;BME280;38616;42.140;24.760;2022-07-04T01:33:01;99716.75;;;24.69;38.86
52719;BME280;38616;42.140;24.760;2022-07-04T01:35:27;99707.03;;;24.56;39.31
52719;BME280;38616;42.140;24.760;2022-07-04T01:37:52;99710.22;;;24.58;39.15
52719;BME280;38616;42.140;24.760;2022-07-04T01:40:18;99710.72;;;24.63;39.04
52719;BME280;38616;42.140;24.760;2022-07-04T01:42:43;99705.84;;;24.57;39.46
52719;BME280;38616;42.140;24.760;2022-07-04T01:45:10;99703.34;;;24.48;39.95
52719;BME280;38616;42.140;24.760;2022-07-04T01:47:36;99692.59;;;24.46;39.54
52719;BME280;38616;42.140;24.760;2022-07-04T01:50:03;99707.84;;;24.56;39.80
52719;BME280;38616;42.140;24.760;2022-07-04T01:52:29;99712.78;;;24.43;39.80
52719;BME280;38616;42.140;24.760;2022-07-04T01:54:55;99711.88;;;24.35;40.24
52719;BME280;38616;42.140;24.760;2022-07-04T01:57:20;99701.31;;;24.45;40.15
52719;BME280;38616;42.140;24.760;2022-07-04T01:59:46;99708.78;;;24.41;40.15
52719;BME280;38616;42.140;24.760;2022-07-04T02:02:30;99719.25;;;24.51;40.16
52719;BME280;38616;42.140;24.760;2022-07-04T02:04:55;99722.84;;;24.28;40.22
52719;BME280;38616;42.140;24.760;2022-07-04T02:07:20;99711.47;;;23.90;40.24
52719;BME280;38616;42.140;24.760;2022-07-04T02:09:46;99707.06;;;23.66;40.63
52719;BME280;38616;42.140;24.760;2022-07-04T02:12:12;99718.59;;;23.49;40.84
52719;BME280;38616;42.140;24.760;2022-07-04T02:14:55;99718.41;;;23.38;41.74
52719;BME280;38616;42.140;24.760;2022-07-04T02:17:21;99725.59;;;23.62;41.10
52719;BME280;38616;42.140;24.760;2022-07-04T02:19:47;99717.22;;;23.39;41.29
52719;BME280;38616;42.140;24.760;2022-07-04T02:22:13;99721.66;;;23.43;41.42
52719;BME280;38616;42.140;24.760;2022-07-04T02:24:39;99733.03;;;23.38;42.04
52719;BME280;38616;42.140;24.760;2022-07-04T02:27:05;99735.94;;;23.26;42.58
52719;BME280;38616;42.140;24.760;2022-07-04T02:29:30;99728.72;;;22.85;43.39
52719;BME280;38616;42.140;24.760;2022-07-04T02:31:56;99722.97;;;23.30;42.73
52719;BME280;38616;42.140;24.760;2022-07-04T02:34:21;99736.25;;;23.40;42.66
52719;BME280;38616;42.140;24.760;2022-07-04T02:36:47;99745.41;;;23.25;42.72
52719;BME280;38616;42.140;24.760;2022-07-04T02:39:12;99740.56;;;23.22;42.81
52719;BME280;38616;42.140;24.760;2022-07-04T02:41:38;99744.69;;;23.28;42.61
52719;BME280;38616;42.140;24.760;2022-07-04T02:44:03;99743.41;;;23.06;43.17
52719;BME280;38616;42.140;24.760;2022-07-04T02:46:29;99735.34;;;22.65;44.26
52719;BME280;38616;42.140;24.760;2022-07-04T02:48:57;99747.69;;;23.03;43.67
52719;BME280;38616;42.140;24.760;2022-07-04T02:51:23;99749.38;;;23.08;43.41
52719;BME280;38616;42.140;24.760;2022-07-04T02:53:48;99753.00;;;22.92;43.60
52719;BME280;38616;42.140;24.760;2022-07-04T02:56:13;99751.59;;;22.82;43.84
52719;BME280;38616;42.140;24.760;2022-07-04T02:58:39;99762.41;;;23.07;43.46
52719;BME280;38616;42.140;24.760;2022-07-04T03:01:04;99757.03;;;23.30;42.78
52719;BME280;38616;42.140;24.760;2022-07-04T03:03:30;99750.34;;;23.15;43.29
52719;BME280;38616;42.140;24.760;2022-07-04T03:05:55;99762.81;;;23.41;43.21
52719;BME280;38616;42.140;24.760;2022-07-04T03:08:21;99773.50;;;23.43;43.27
52719;BME280;38616;42.140;24.760;2022-07-04T03:10:49;99764.13;;;23.67;42.50
52719;BME280;38616;42.140;24.760;2022-07-04T03:13:16;99765.06;;;23.55;42.75
52719;BME280;38616;42.140;24.760;2022-07-04T03:15:42;99763.47;;;23.18;43.08
52719;BME280;38616;42.140;24.760;2022-07-04T03:18:07;99765.16;;;22.87;43.94
52719;BME280;38616;42.140;24.760;2022-07-04T03:20:32;99770.81;;;22.75;44.47
52719;BME280;38616;42.140;24.760;2022-07-04T03:22:58;99760.88;;;22.74;44.72
52719;BME280;38616;42.140;24.760;2022-07-04T03:25:23;99765.53;;;22.70;45.00
52719;BME280;38616;42.140;24.760;2022-07-04T03:27:49;99765.75;;;22.17;46.41
52719;BME280;38616;42.140;24.760;2022-07-04T03:30:15;99765.50;;;22.22;46.72
52719;BME280;38616;42.140;24.760;2022-07-04T03:32:43;99767.19;;;22.10;47.28
52719;BME280;38616;42.140;24.760;2022-07-04T03:35:08;99755.78;;;22.60;46.36
52719;BME280;38616;42.140;24.760;2022-07-04T03:37:34;99766.13;;;22.95;45.66
52719;BME280;38616;42.140;24.760;2022-07-04T03:39:59;99759.09;;;22.82;45.99
52719;BME280;38616;42.140;24.760;2022-07-04T03:42:25;99766.41;;;22.90;45.99
52719;BME280;38616;42.140;24.760;2022-07-04T03:44:50;99755.09;;;22.99;45.92
52719;BME280;38616;42.140;24.760;2022-07-04T03:47:16;99755.44;;;22.78;46.90
52719;BME280;38616;42.140;24.760;2022-07-04T03:49:41;99761.13;;;22.37;47.77
52719;BME280;38616;42.140;24.760;2022-07-04T03:52:07;99752.47;;;22.22;48.51
52719;BME280;38616;42.140;24.760;2022-07-04T03:54:32;99760.88;;;22.42;47.93
52719;BME280;38616;42.140;24.760;2022-07-04T03:56:58;99759.25;;;22.41;48.22
52719;BME280;38616;42.140;24.760;2022-07-04T03:59:23;99749.75;;;22.54;48.02
52719;BME280;38616;42.140;24.760;2022-07-04T04:01:49;99763.00;;;22.33;48.59
52719;BME280;38616;42.140;24.760;2022-07-04T04:04:14;99748.94;;;22.70;47.47
52719;BME280;38616;42.140;24.760;2022-07-04T04:06:58;99764.50;;;22.14;48.69
52719;BME280;38616;42.140;24.760;2022-07-04T04:09:24;99757.66;;;22.24;48.50
52719;BME280;38616;42.140;24.760;2022-07-04T04:11:51;99764.22;;;22.19;48.17
52719;BME280;38616;42.140;24.760;2022-07-04T04:14:16;99755.84;;;22.16;48.39
52719;BME280;38616;42.140;24.760;2022-07-04T04:16:42;99755.47;;;22.01;48.56
52719;BME280;38616;42.140;24.760;2022-07-04T04:19:08;99758.38;;;22.37;47.79
52719;BME280;38616;42.140;24.760;2022-07-04T04:21:34;99754.81;;;22.52;47.13
52719;BME280;38616;42.140;24.760;2022-07-04T04:24:00;99757.84;;;22.79;46.52
52719;BME280;38616;42.140;24.760;2022-07-04T04:26:26;99756.59;;;22.93;46.13
52719;BME280;38616;42.140;24.760;2022-07-04T04:28:51;99758.38;;;23.21;45.67
52719;BME280;38616;42.140;24.760;2022-07-04T04:31:17;99763.66;;;23.26;45.89
52719;BME280;38616;42.140;24.760;2022-07-04T04:33:42;99769.44;;;23.37;44.93
52719;BME280;38616;42.140;24.760;2022-07-04T04:36:08;99755.88;;;23.51;44.72
52719;BME280;38616;42.140;24.760;2022-07-04T04:38:33;99763.53;;;23.58;44.45
52719;BME280;38616;42.140;24.760;2022-07-04T04:40:58;99771.56;;;23.63;44.97
52719;BME280;38616;42.140;24.760;2022-07-04T04:43:24;99754.41;;;23.57;44.58
52719;BME280;38616;42.140;24.760;2022-07-04T04:45:49;99769.09;;;23.58;44.72
52719;BME280;38616;42.140;24.760;2022-07-04T04:48:15;99772.50;;;23.71;44.39
52719;BME280;38616;42.140;24.760;2022-07-04T04:50:40;99772.06;;;23.88;44.31
52719;BME280;38616;42.140;24.760;2022-07-04T04:53:06;99769.72;;;23.90;44.71
52719;BME280;38616;42.140;24.760;2022-07-04T04:55:32;99780.66;;;23.44;44.72
52719;BME280;38616;42.140;24.760;2022-07-04T04:57:57;99776.44;;;23.14;45.23
52719;BME280;38616;42.140;24.760;2022-07-04T05:00:23;99768.94;;;22.79;46.00
52719;BME280;38616;42.140;24.760;2022-07-04T05:02:48;99768.66;;;23.20;45.36
52719;BME280;38616;42.140;24.760;2022-07-04T05:05:13;99771.06;;;23.38;45.01
52719;BME280;38616;42.140;24.760;2022-07-04T05:07:39;99770.44;;;22.77;46.27
52719;BME280;38616;42.140;24.760;2022-07-04T05:10:05;99768.97;;;22.99;45.44
52719;BME280;38616;42.140;24.760;2022-07-04T05:12:30;99763.38;;;22.79;46.04
52719;BME280;38616;42.140;24.760;2022-07-04T05:14:56;99753.59;;;23.01;45.43
52719;BME280;38616;42.140;24.760;2022-07-04T05:17:21;99762.34;;;23.03;45.04
52719;BME280;38616;42.140;24.760;2022-07-04T05:19:47;99758.09;;;22.90;45.46
52719;BME280;38616;42.140;24.760;2022-07-04T05:22:13;99773.13;;;23.25;44.39
52719;BME280;38616;42.140;24.760;2022-07-04T05:24:39;99751.50;;;23.30;44.53
52719;BME280;38616;42.140;24.760;2022-07-04T05:27:06;99766.00;;;23.24;44.27
52719;BME280;38616;42.140;24.760;2022-07-04T05:29:31;99761.97;;;23.41;44.93
52719;BME280;38616;42.140;24.760;2022-07-04T05:31:57;99760.38;;;23.79;44.49
52719;BME280;38616;42.140;24.760;2022-07-04T05:34:22;99745.09;;;23.89;43.78
52719;BME280;38616;42.140;24.760;2022-07-04T05:36:48;99758.25;;;24.12;43.49
52719;BME280;38616;42.140;24.760;2022-07-04T05:39:14;99763.13;;;24.42;42.58
52719;BME280;38616;42.140;24.760;2022-07-04T05:41:39;99760.22;;;24.11;42.63
52719;BME280;38616;42.140;24.760;2022-07-04T05:44:07;99758.94;;;24.05;42.77
52719;BME280;38616;42.140;24.760;2022-07-04T05:46:33;99750.00;;;24.15;42.04
52719;BME280;38616;42.140;24.760;2022-07-04T05:48:59;99756.50;;;24.03;42.41
52719;BME280;38616;42.140;24.760;2022-07-04T05:51:24;99753.25;;;24.21;42.26
52719;BME280;38616;42.140;24.760;2022-07-04T05:53:50;99764.59;;;24.12;41.50
52719;BME280;38616;42.140;24.760;2022-07-04T05:56:15;99762.81;;;24.47;40.95
52719;BME280;38616;42.140;24.760;2022-07-04T05:58:41;99739.84;;;24.73;40.65
52719;BME280;38616;42.140;24.760;2022-07-04T06:01:07;99748.03;;;24.66;40.67
52719;BME280;38616;42.140;24.760;2022-07-04T06:03:34;99758.63;;;24.33;40.87
52719;BME280;38616;42.140;24.760;2022-07-04T06:06:05;99753.44;;;24.55;41.49
52719;BME280;38616;42.140;24.760;2022-07-04T06:08:31;99755.59;;;24.66;40.25
52719;BME280;38616;42.140;24.760;2022-07-04T06:10:56;99754.03;;;24.68;39.88
52719;BME280;38616;42.140;24.760;2022-07-04T06:13:22;99753.16;;;24.87;40.10
52719;BME280;38616;42.140;24.760;2022-07-04T06:15:49;99735.72;;;24.90;39.59
52719;BME280;38616;42.140;24.760;2022-07-04T06:18:14;99747.91;;;24.82;38.92
52719;BME280;38616;42.140;24.760;2022-07-04T06:20:41;99744.81;;;24.87;38.37
52719;BME280;38616;42.140;24.760;2022-07-04T06:23:06;99741.25;;;24.87;38.71
52719;BME280;38616;42.140;24.760;2022-07-04T06:25:33;99751.88;;;24.81;37.78
52719;BME280;38616;42.140;24.760;2022-07-04T06:28:00;99738.91;;;24.89;39.12
52719;BME280;38616;42.140;24.760;2022-07-04T06:30:26;99734.97;;;25.20;39.19
52719;BME280;38616;42.140;24.760;2022-07-04T06:32:54;99743.38;;;24.97;39.00
52719;BME280;38616;42.140;24.760;2022-07-04T06:35:22;99733.22;;;25.39;39.33
52719;BME280;38616;42.140;24.760;2022-07-04T06:38:06;99736.19;;;25.23;38.89
52719;BME280;38616;42.140;24.760;2022-07-04T06:40:33;99734.25;;;25.27;38.92
52719;BME280;38616;42.140;24.760;2022-07-04T06:42:59;99735.75;;;25.21;38.43
52719;BME280;38616;42.140;24.760;2022-07-04T06:45:25;99731.78;;;24.91;38.44
52719;BME280;38616;42.140;24.760;2022-07-04T06:47:50;99722.34;;;24.96;38.09
52719;BME280;38616;42.140;24.760;2022-07-04T06:50:16;99724.50;;;25.41;38.04
52719;BME280;38616;42.140;24.760;2022-07-04T06:52:43;99710.78;;;25.25;37.35
52719;BME280;38616;42.140;24.760;2022-07-04T06:55:08;99711.19;;;25.54;37.59
52719;BME280;38616;42.140;24.760;2022-07-04T06:57:34;99716.59;;;25.12;37.20
52719;BME280;38616;42.140;24.760;2022-07-04T06:59:59;99717.22;;;25.32;37.33
52719;BME280;38616;42.140;24.760;2022-07-04T07:02:25;99710.81;;;25.28;37.01
52719;BME280;38616;42.140;24.760;2022-07-04T07:04:51;99702.75;;;25.16;36.63
52719;BME280;38616;42.140;24.760;2022-07-04T07:07:16;99696.94;;;25.59;36.39
52719;BME280;38616;42.140;24.760;2022-07-04T07:09:42;99697.97;;;25.85;35.89
52719;BME280;38616;42.140;24.760;2022-07-04T07:12:07;99698.25;;;25.72;36.15
52719;BME280;38616;42.140;24.760;2022-07-04T07:14:33;99696.19;;;26.03;35.99
52719;BME280;38616;42.140;24.760;2022-07-04T07:16:58;99704.63;;;26.14;35.57
52719;BME280;38616;42.140;24.760;2022-07-04T07:19:24;99694.91;;;25.97;36.06
52719;BME280;38616;42.140;24.760;2022-07-04T07:21:50;99694.84;;;26.31;35.93
52719;BME280;38616;42.140;24.760;2022-07-04T07:24:15;99693.31;;;26.37;36.50
52719;BME280;38616;42.140;24.760;2022-07-04T07:26:40;99682.72;;;26.58;36.01
52719;BME280;38616;42.140;24.760;2022-07-04T07:29:06;99683.78;;;26.38;36.43
52719;BME280;38616;42.140;24.760;2022-07-04T07:31:31;99680.72;;;26.58;36.80
52719;BME280;38616;42.140;24.760;2022-07-04T07:33:57;99681.22;;;26.71;36.31
52719;BME280;38616;42.140;24.760;2022-07-04T07:36:22;99673.97;;;26.59;37.00
52719;BME280;38616;42.140;24.760;2022-07-04T07:38:48;99678.53;;;26.89;37.20
52719;BME280;38616;42.140;24.760;2022-07-04T07:41:13;99679.66;;;26.77;36.79
52719;BME280;38616;42.140;24.760;2022-07-04T07:43:39;99684.78;;;26.72;36.75
52719;BME280;38616;42.140;24.760;2022-07-04T07:46:06;99668.44;;;26.66;36.76
52719;BME280;38616;42.140;24.760;2022-07-04T07:48:32;99677.25;;;26.72;36.58
52719;BME280;38616;42.140;24.760;2022-07-04T07:50:57;99680.28;;;26.49;37.36
52719;BME280;38616;42.140;24.760;2022-07-04T07:53:23;99675.91;;;26.51;37.24
52719;BME280;38616;42.140;24.760;2022-07-04T07:55:48;99656.00;;;26.53;36.93
52719;BME280;38616;42.140;24.760;2022-07-04T07:58:14;99669.66;;;26.73;37.31
52719;BME280;38616;42.140;24.760;2022-07-04T08:00:39;99669.03;;;26.97;36.57
52719;BME280;38616;42.140;24.760;2022-07-04T08:03:05;99667.44;;;26.96;37.20
52719;BME280;38616;42.140;24.760;2022-07-04T08:05:49;99665.63;;;27.44;36.36
52719;BME280;38616;42.140;24.760;2022-07-04T08:08:14;99670.47;;;27.54;35.96
52719;BME280;38616;42.140;24.760;2022-07-04T08:10:39;99660.03;;;27.29;36.44
52719;BME280;38616;42.140;24.760;2022-07-04T08:13:05;99665.19;;;27.31;36.42
52719;BME280;38616;42.140;24.760;2022-07-04T08:15:31;99657.78;;;27.79;35.22
52719;BME280;38616;42.140;24.760;2022-07-04T08:17:57;99653.75;;;27.58;35.43
52719;BME280;38616;42.140;24.760;2022-07-04T08:20:23;99656.94;;;27.71;35.22
52719;BME280;38616;42.140;24.760;2022-07-04T08:22:48;99656.56;;;27.91;35.07
52719;BME280;38616;42.140;24.760;2022-07-04T08:25:14;99646.22;;;28.31;35.29
52719;BME280;38616;42.140;24.760;2022-07-04T08:27:41;99646.56;;;28.55;34.88
52719;BME280;38616;42.140;24.760;2022-07-04T08:30:07;99653.00;;;28.34;34.42
52719;BME280;38616;42.140;24.760;2022-07-04T08:32:33;99633.88;;;28.25;34.30
52719;BME280;38616;42.140;24.760;2022-07-04T08:34:59;99645.84;;;28.22;34.73
52719;BME280;38616;42.140;24.760;2022-07-04T08:37:25;99651.41;;;28.18;34.53
52719;BME280;38616;42.140;24.760;2022-07-04T08:39:51;99654.97;;;28.33;34.84
52719;BME280;38616;42.140;24.760;2022-07-04T08:42:18;99657.75;;;28.48;34.25
52719;BME280;38616;42.140;24.760;2022-07-04T08:44:48;99648.13;;;28.74;32.95
52719;BME280;38616;42.140;24.760;2022-07-04T08:47:18;99642.56;;;28.78;32.51
52719;BME280;38616;42.140;24.760;2022-07-04T08:49:58;99650.94;;;28.85;33.09
52719;BME280;38616;42.140;24.760;2022-07-04T08:52:36;99652.16;;;28.77;33.12
52719;BME280;38616;42.140;24.760;2022-07-04T08:55:04;99650.53;;;28.75;32.99
52719;BME280;38616;42.140;24.760;2022-07-04T08:57:49;99647.75;;;28.68;32.24
52719;BME280;38616;42.140;24.760;2022-07-04T09:00:35;99647.28;;;28.99;31.93
52719;BME280;38616;42.140;24.760;2022-07-04T09:03:02;99647.16;;;29.28;31.70
52719;BME280;38616;42.140;24.760;2022-07-04T09:05:28;99634.75;;;29.25;31.76
52719;BME280;38616;42.140;24.760;2022-07-04T09:07:55;99639.50;;;29.43;31.27
52719;BME280;38616;42.140;24.760;2022-07-04T09:10:24;99635.84;;;29.53;31.04
52719;BME280;38616;42.140;24.760;2022-07-04T09:12:51;99640.66;;;29.49;27.43
52719;BME280;38616;42.140;24.760;2022-07-04T09:15:17;99629.84;;;29.55;25.80
52719;BME280;38616;42.140;24.760;2022-07-04T09:17:43;99623.19;;;29.87;23.76
52719;BME280;38616;42.140;24.760;2022-07-04T09:20:18;99625.16;;;29.93;25.93
52719;BME280;38616;42.140;24.760;2022-07-04T09:22:46;99624.75;;;29.99;26.16
52719;BME280;38616;42.140;24.760;2022-07-04T09:25:12;99629.53;;;29.98;23.17
52719;BME280;38616;42.140;24.760;2022-07-04T09:27:41;99627.84;;;30.12;23.62
52719;BME280;38616;42.140;24.760;2022-07-04T09:30:08;99617.28;;;30.27;23.66
52719;BME280;38616;42.140;24.760;2022-07-04T09:35:08;99609.38;;;30.14;24.98
52719;BME280;38616;42.140;24.760;2022-07-04T09:37:40;99623.25;;;30.29;25.21
52719;BME280;38616;42.140;24.760;2022-07-04T09:40:08;99611.06;;;30.46;24.98
52719;BME280;38616;42.140;24.760;2022-07-04T09:42:39;99617.84;;;30.49;25.09
52719;BME280;38616;42.140;24.760;2022-07-04T09:45:10;99609.13;;;29.98;24.84
52719;BME280;38616;42.140;24.760;2022-07-04T09:47:40;99613.88;;;30.04;25.72
52719;BME280;38616;42.140;24.760;2022-07-04T09:52:44;99613.31;;;30.66;25.73
52719;BME280;38616;42.140;24.760;2022-07-04T09:55:10;99609.59;;;30.73;25.90
52719;BME280;38616;42.140;24.760;2022-07-04T09:57:35;99601.00;;;30.91;25.25
52719;BME280;38616;42.140;24.760;2022-07-04T10:00:22;99606.06;;;31.00;25.15
52719;BME280;38616;42.140;24.760;2022-07-04T10:02:49;99606.16;;;30.92;25.27
52719;BME280;38616;42.140;24.760;2022-07-04T10:05:20;99605.03;;;30.86;25.27
52719;BME280;38616;42.140;24.760;2022-07-04T10:07:46;99601.91;;;30.80;25.83
52719;BME280;38616;42.140;24.760;2022-07-04T10:12:56;99593.19;;;31.06;26.31
52719;BME280;38616;42.140;24.760;2022-07-04T10:15:22;99599.78;;;31.23;25.88
52719;BME280;38616;42.140;24.760;2022-07-04T10:17:48;99602.91;;;31.29;25.11
52719;BME280;38616;42.140;24.760;2022-07-04T10:20:14;99591.06;;;31.17;25.04
52719;BME280;38616;42.140;24.760;2022-07-04T10:22:40;99593.31;;;31.26;24.60
52719;BME280;38616;42.140;24.760;2022-07-04T10:25:06;99597.72;;;31.27;25.36
52719;BME280;38616;42.140;24.760;2022-07-04T10:27:33;99593.28;;;31.30;25.78
52719;BME280;38616;42.140;24.760;2022-07-04T10:30:00;99592.81;;;31.35;25.56
52719;BME280;38616;42.140;24.760;2022-07-04T10:32:27;99591.94;;;31.38;25.82
52719;BME280;38616;42.140;24.760;2022-07-04T10:34:54;99586.94;;;31.25;25.51
52719;BME280;38616;42.140;24.760;2022-07-04T10:37:19;99585.75;;;31.23;25.35
52719;BME280;38616;42.140;24.760;2022-07-04T10:39:46;99580.84;;;31.31;25.64
52719;BME280;38616;42.140;24.760;2022-07-04T10:42:25;99569.16;;;30.74;26.10
52719;BME280;38616;42.140;24.760;2022-07-04T10:44:51;99578.31;;;31.64;25.55
52719;BME280;38616;42.140;24.760;2022-07-04T10:47:24;99576.06;;;32.26;24.86
52719;BME280;38616;42.140;24.760;2022-07-04T10:49:52;99564.19;;;32.79;24.02
52719;BME280;38616;42.140;24.760;2022-07-04T10:52:18;99561.97;;;32.91;24.21
52719;BME280;38616;42.140;24.760;2022-07-04T10:54:44;99559.44;;;32.76;24.38
52719;BME280;38616;42.140;24.760;2022-07-04T10:57:18;99569.97;;;32.08;25.30
52719;BME280;38616;42.140;24.760;2022-07-04T11:07:18;99558.81;;;32.89;24.70
52719;BME280;38616;42.140;24.760;2022-07-04T11:09:44;99561.16;;;31.86;25.21
52719;BME280;38616;42.140;24.760;2022-07-04T11:12:10;99552.66;;;31.89;25.70
52719;BME280;38616;42.140;24.760;2022-07-04T11:14:45;99543.06;;;31.87;25.74
52719;BME280;38616;42.140;24.760;2022-07-04T11:17:37;99548.00;;;32.03;25.66
52719;BME280;38616;42.140;24.760;2022-07-04T11:20:02;99542.75;;;31.81;25.82
52719;BME280;38616;42.140;24.760;2022-07-04T11:22:29;99548.38;;;31.81;26.00
52719;BME280;38616;42.140;24.760;2022-07-04T11:24:54;99548.09;;;31.48;26.33
52719;BME280;38616;42.140;24.760;2022-07-04T11:27:22;99548.34;;;31.84;25.80
52719;BME280;38616;42.140;24.760;2022-07-04T11:29:54;99544.47;;;31.98;26.27
52719;BME280;38616;42.140;24.760;2022-07-04T11:32:21;99541.41;;;31.89;25.51
52719;BME280;38616;42.140;24.760;2022-07-04T11:34:54;99535.53;;;32.68;25.82
52719;BME280;38616;42.140;24.760;2022-07-04T11:37:20;99529.69;;;33.15;25.02
52719;BME280;38616;42.140;24.760;2022-07-04T11:39:50;99521.56;;;33.01;25.17
52719;BME280;38616;42.140;24.760;2022-07-04T11:42:15;99533.16;;;32.66;25.89
52719;BME280;38616;42.140;24.760;2022-07-04T11:44:59;99527.44;;;32.70;25.83
52719;BME280;38616;42.140;24.760;2022-07-04T11:49:58;99516.53;;;32.72;25.08
52719;BME280;38616;42.140;24.760;2022-07-04T11:52:29;99518.59;;;33.08;24.79
52719;BME280;38616;42.140;24.760;2022-07-04T11:54:55;99514.28;;;33.20;25.07
52719;BME280;38616;42.140;24.760;2022-07-04T11:59:53;99519.66;;;33.31;24.72
52719;BME280;38616;42.140;24.760;2022-07-04T12:02:18;99519.19;;;33.53;24.62
52719;BME280;38616;42.140;24.760;2022-07-04T12:04:44;99516.09;;;33.47;24.03
52719;BME280;38616;42.140;24.760;2022-07-04T12:07:14;99517.56;;;33.35;24.42
52719;BME280;38616;42.140;24.760;2022-07-04T12:09:41;99504.53;;;33.08;24.47
52719;BME280;38616;42.140;24.760;2022-07-04T12:12:07;99507.22;;;32.75;24.62
52719;BME280;38616;42.140;24.760;2022-07-04T12:14:33;99514.69;;;32.85;24.29
52719;BME280;38616;42.140;24.760;2022-07-04T12:17:16;99506.88;;;32.93;23.94
52719;BME280;38616;42.140;24.760;2022-07-04T12:19:53;99501.16;;;32.97;23.41
52719;BME280;38616;42.140;24.760;2022-07-04T12:24:57;99499.59;;;33.12;23.51
52719;BME280;38616;42.140;24.760;2022-07-04T12:27:27;99495.69;;;32.33;24.01
52719;BME280;38616;42.140;24.760;2022-07-04T12:29:54;99497.91;;;32.21;24.38
52719;BME280;38616;42.140;24.760;2022-07-04T12:32:20;99499.94;;;32.21;24.26
52719;BME280;38616;42.140;24.760;2022-07-04T12:34:46;99504.72;;;33.18;23.25
52719;BME280;38616;42.140;24.760;2022-07-04T12:37:13;99498.59;;;33.39;21.91
52719;BME280;38616;42.140;24.760;2022-07-04T12:39:41;99487.78;;;32.84;22.61
52719;BME280;38616;42.140;24.760;2022-07-04T12:42:12;99497.06;;;32.81;22.63
52719;BME280;38616;42.140;24.760;2022-07-04T12:44:39;99499.66;;;32.55;22.63
52719;BME280;38616;42.140;24.760;2022-07-04T12:47:06;99480.94;;;32.65;22.39
52719;BME280;38616;42.140;24.760;2022-07-04T12:49:33;99482.72;;;32.39;22.96
52719;BME280;38616;42.140;24.760;2022-07-04T12:52:07;99478.13;;;32.85;22.14
52719;BME280;38616;42.140;24.760;2022-07-04T12:54:32;99481.81;;;32.99;21.81
52719;BME280;38616;42.140;24.760;2022-07-04T12:57:07;99471.13;;;32.37;22.23
52719;BME280;38616;42.140;24.760;2022-07-04T12:59:33;99480.94;;;32.05;22.69
52719;BME280;38616;42.140;24.760;2022-07-04T13:01:59;99474.75;;;31.93;22.88
52719;BME280;38616;42.140;24.760;2022-07-04T13:04:24;99465.75;;;32.22;22.56
52719;BME280;38616;42.140;24.760;2022-07-04T13:06:50;99458.84;;;32.07;22.10
52719;BME280;38616;42.140;24.760;2022-07-04T13:09:16;99469.22;;;32.30;22.71
52719;BME280;38616;42.140;24.760;2022-07-04T13:11:41;99467.25;;;32.67;21.35